sensor_id;sensor_type;location;lat;lon;timestamp;temperature;humidity
42755;DHT22;28407;51.830;5.684;2023-04-03T00:01:22;7.70;68.20
42755;DHT22;28407;51.830;5.684;2023-04-03T00:03:23;7.70;68.20
42755;DHT22;28407;51.830;5.684;2023-04-03T00:05:23;7.70;68.20
42755;DHT22;28407;51.830;5.684;2023-04-03T00:07:24;7.70;68.20
42755;DHT22;28407;51.830;5.684;2023-04-03T00:09:25;7.70;68.20
42755;DHT22;28407;51.830;5.684;2023-04-03T00:11:25;7.70;68.20
42755;DHT22;28407;51.830;5.684;2023-04-03T00:13:26;7.60;68.10
42755;DHT22;28407;51.830;5.684;2023-04-03T00:15:27;7.70;68.20
42755;DHT22;28407;51.830;5.684;2023-04-03T00:17:27;7.60;68.20
42755;DHT22;28407;51.830;5.684;2023-04-03T00:19:28;7.60;68.30
42755;DHT22;28407;51.830;5.684;2023-04-03T00:21:29;7.60;68.30
42755;DHT22;28407;51.830;5.684;2023-04-03T00:23:30;7.60;68.30
42755;DHT22;28407;51.830;5.684;2023-04-03T00:25:30;7.60;68.30
42755;DHT22;28407;51.830;5.684;2023-04-03T00:27:31;7.60;68.30
42755;DHT22;28407;51.830;5.684;2023-04-03T00:29:32;7.60;68.30
42755;DHT22;28407;51.830;5.684;2023-04-03T00:31:32;7.50;68.30
42755;DHT22;28407;51.830;5.684;2023-04-03T00:33:33;7.50;68.30
42755;DHT22;28407;51.830;5.684;2023-04-03T00:35:34;7.50;68.30
42755;DHT22;28407;51.830;5.684;2023-04-03T00:37:35;7.50;68.30
42755;DHT22;28407;51.830;5.684;2023-04-03T00:39:36;7.50;68.30
42755;DHT22;28407;51.830;5.684;2023-04-03T00:41:36;7.50;68.20
42755;DHT22;28407;51.830;5.684;2023-04-03T00:43:37;7.50;68.20
42755;DHT22;28407;51.830;5.684;2023-04-03T00:45:41;7.50;68.20
42755;DHT22;28407;51.830;5.684;2023-04-03T00:47:42;7.50;68.10
42755;DHT22;28407;51.830;5.684;2023-04-03T00:49:43;7.50;68.00
42755;DHT22;28407;51.830;5.684;2023-04-03T00:51:45;7.50;68.00
42755;DHT22;28407;51.830;5.684;2023-04-03T00:53:59;7.50;67.90
42755;DHT22;28407;51.830;5.684;2023-04-03T00:56:01;7.50;67.90
42755;DHT22;28407;51.830;5.684;2023-04-03T00:58:06;7.50;67.80
42755;DHT22;28407;51.830;5.684;2023-04-03T01:00:10;7.50;67.80
42755;DHT22;28407;51.830;5.684;2023-04-03T01:02:11;7.50;67.70
42755;DHT22;28407;51.830;5.684;2023-04-03T01:04:33;7.50;67.70
42755;DHT22;28407;51.830;5.684;2023-04-03T01:06:36;7.50;67.70
42755;DHT22;28407;51.830;5.684;2023-04-03T01:08:43;7.50;67.70
42755;DHT22;28407;51.830;5.684;2023-04-03T01:10:44;7.50;67.70
42755;DHT22;28407;51.830;5.684;2023-04-03T01:12:47;7.40;67.60
42755;DHT22;28407;51.830;5.684;2023-04-03T01:14:54;7.50;67.60
42755;DHT22;28407;51.830;5.684;2023-04-03T01:16:55;7.50;67.60
42755;DHT22;28407;51.830;5.684;2023-04-03T01:18:56;7.50;67.60
42755;DHT22;28407;51.830;5.684;2023-04-03T01:25:02;7.50;67.50
42755;DHT22;28407;51.830;5.684;2023-04-03T01:27:04;7.40;67.40
42755;DHT22;28407;51.830;5.684;2023-04-03T01:29:05;7.40;67.40
42755;DHT22;28407;51.830;5.684;2023-04-03T01:31:15;7.40;67.50
42755;DHT22;28407;51.830;5.684;2023-04-03T01:33:20;7.40;67.50
42755;DHT22;28407;51.830;5.684;2023-04-03T01:35:22;7.40;67.50
42755;DHT22;28407;51.830;5.684;2023-04-03T01:37:23;7.40;67.40
42755;DHT22;28407;51.830;5.684;2023-04-03T01:39:23;7.40;67.40
42755;DHT22;28407;51.830;5.684;2023-04-03T01:41:25;7.30;67.40
42755;DHT22;28407;51.830;5.684;2023-04-03T01:43:29;7.40;67.50
42755;DHT22;28407;51.830;5.684;2023-04-03T01:45:30;7.30;67.50
42755;DHT22;28407;51.830;5.684;2023-04-03T01:47:31;7.30;67.50
42755;DHT22;28407;51.830;5.684;2023-04-03T01:49:32;7.30;67.50
42755;DHT22;28407;51.830;5.684;2023-04-03T01:51:32;7.30;67.40
42755;DHT22;28407;51.830;5.684;2023-04-03T01:53:33;7.30;67.50
42755;DHT22;28407;51.830;5.684;2023-04-03T01:55:34;7.30;67.50
42755;DHT22;28407;51.830;5.684;2023-04-03T01:57:35;7.30;67.50
42755;DHT22;28407;51.830;5.684;2023-04-03T01:59:36;7.20;67.50
42755;DHT22;28407;51.830;5.684;2023-04-03T02:01:36;7.20;67.60
42755;DHT22;28407;51.830;5.684;2023-04-03T02:03:37;7.20;67.60
42755;DHT22;28407;51.830;5.684;2023-04-03T02:05:38;7.20;67.60
42755;DHT22;28407;51.830;5.684;2023-04-03T02:07:39;7.10;67.60
42755;DHT22;28407;51.830;5.684;2023-04-03T02:09:40;7.10;67.70
42755;DHT22;28407;51.830;5.684;2023-04-03T02:11:40;7.10;67.80
42755;DHT22;28407;51.830;5.684;2023-04-03T02:13:41;7.10;67.80
42755;DHT22;28407;51.830;5.684;2023-04-03T02:15:42;7.10;67.80
42755;DHT22;28407;51.830;5.684;2023-04-03T02:17:43;7.10;67.80
42755;DHT22;28407;51.830;5.684;2023-04-03T02:19:44;7.10;67.80
42755;DHT22;28407;51.830;5.684;2023-04-03T02:21:45;7.10;67.80
42755;DHT22;28407;51.830;5.684;2023-04-03T02:23:45;7.10;67.80
42755;DHT22;28407;51.830;5.684;2023-04-03T02:25:46;7.10;67.80
42755;DHT22;28407;51.830;5.684;2023-04-03T02:27:46;7.10;67.90
42755;DHT22;28407;51.830;5.684;2023-04-03T02:29:47;7.00;67.90
42755;DHT22;28407;51.830;5.684;2023-04-03T02:31:48;7.00;67.90
42755;DHT22;28407;51.830;5.684;2023-04-03T02:33:49;7.00;67.90
42755;DHT22;28407;51.830;5.684;2023-04-03T02:35:57;7.00;67.90
42755;DHT22;28407;51.830;5.684;2023-04-03T02:37:57;7.00;68.00
42755;DHT22;28407;51.830;5.684;2023-04-03T02:39:58;7.00;68.00
42755;DHT22;28407;51.830;5.684;2023-04-03T02:42:02;7.00;68.00
42755;DHT22;28407;51.830;5.684;2023-04-03T02:44:05;7.00;68.00
42755;DHT22;28407;51.830;5.684;2023-04-03T02:46:06;7.00;68.00
42755;DHT22;28407;51.830;5.684;2023-04-03T02:48:07;7.00;68.10
42755;DHT22;28407;51.830;5.684;2023-04-03T02:50:08;7.00;68.10
42755;DHT22;28407;51.830;5.684;2023-04-03T02:52:09;7.00;68.20
42755;DHT22;28407;51.830;5.684;2023-04-03T02:54:10;6.90;68.20
42755;DHT22;28407;51.830;5.684;2023-04-03T02:56:13;6.90;68.20
42755;DHT22;28407;51.830;5.684;2023-04-03T02:58:14;6.90;68.30
42755;DHT22;28407;51.830;5.684;2023-04-03T03:00:15;6.90;68.30
42755;DHT22;28407;51.830;5.684;2023-04-03T03:02:16;6.90;68.40
42755;DHT22;28407;51.830;5.684;2023-04-03T03:04:16;6.80;68.30
42755;DHT22;28407;51.830;5.684;2023-04-03T03:06:17;6.90;68.40
42755;DHT22;28407;51.830;5.684;2023-04-03T03:08:18;6.90;68.40
42755;DHT22;28407;51.830;5.684;2023-04-03T03:10:20;6.90;68.40
42755;DHT22;28407;51.830;5.684;2023-04-03T03:12:21;6.80;68.40
42755;DHT22;28407;51.830;5.684;2023-04-03T03:14:22;6.80;68.50
42755;DHT22;28407;51.830;5.684;2023-04-03T03:16:23;6.80;68.40
42755;DHT22;28407;51.830;5.684;2023-04-03T03:18:23;6.80;68.50
42755;DHT22;28407;51.830;5.684;2023-04-03T03:20:24;6.80;68.60
42755;DHT22;28407;51.830;5.684;2023-04-03T03:22:26;6.80;68.60
42755;DHT22;28407;51.830;5.684;2023-04-03T03:24:26;6.80;68.60
42755;DHT22;28407;51.830;5.684;2023-04-03T03:26:28;6.80;68.60
42755;DHT22;28407;51.830;5.684;2023-04-03T03:28:29;6.80;68.60
42755;DHT22;28407;51.830;5.684;2023-04-03T03:30:30;6.80;68.60
42755;DHT22;28407;51.830;5.684;2023-04-03T03:32:31;6.80;68.60
42755;DHT22;28407;51.830;5.684;2023-04-03T03:34:32;6.80;68.60
42755;DHT22;28407;51.830;5.684;2023-04-03T03:36:33;6.80;68.60
42755;DHT22;28407;51.830;5.684;2023-04-03T03:38:34;6.80;68.70
42755;DHT22;28407;51.830;5.684;2023-04-03T03:40:36;6.80;68.70
42755;DHT22;28407;51.830;5.684;2023-04-03T03:42:37;6.80;68.80
42755;DHT22;28407;51.830;5.684;2023-04-03T03:44:38;6.80;68.80
42755;DHT22;28407;51.830;5.684;2023-04-03T03:46:38;6.70;68.80
42755;DHT22;28407;51.830;5.684;2023-04-03T03:48:39;6.70;68.80
42755;DHT22;28407;51.830;5.684;2023-04-03T03:50:40;6.70;68.80
42755;DHT22;28407;51.830;5.684;2023-04-03T03:52:41;6.70;68.80
42755;DHT22;28407;51.830;5.684;2023-04-03T03:54:41;6.70;68.80
42755;DHT22;28407;51.830;5.684;2023-04-03T03:56:42;6.70;68.90
42755;DHT22;28407;51.830;5.684;2023-04-03T03:58:43;6.70;68.90
42755;DHT22;28407;51.830;5.684;2023-04-03T04:00:44;6.60;68.80
42755;DHT22;28407;51.830;5.684;2023-04-03T04:02:45;6.60;69.00
42755;DHT22;28407;51.830;5.684;2023-04-03T04:04:50;6.60;69.10
42755;DHT22;28407;51.830;5.684;2023-04-03T04:06:51;6.60;69.10
42755;DHT22;28407;51.830;5.684;2023-04-03T04:08:52;6.60;69.10
42755;DHT22;28407;51.830;5.684;2023-04-03T04:10:53;6.60;69.10
42755;DHT22;28407;51.830;5.684;2023-04-03T04:12:53;6.60;69.10
42755;DHT22;28407;51.830;5.684;2023-04-03T04:14:57;6.50;69.00
42755;DHT22;28407;51.830;5.684;2023-04-03T04:16:58;6.50;69.10
42755;DHT22;28407;51.830;5.684;2023-04-03T04:19:01;6.60;69.20
42755;DHT22;28407;51.830;5.684;2023-04-03T04:21:02;6.50;69.10
42755;DHT22;28407;51.830;5.684;2023-04-03T04:23:03;6.50;69.20
42755;DHT22;28407;51.830;5.684;2023-04-03T04:25:05;6.50;69.20
42755;DHT22;28407;51.830;5.684;2023-04-03T04:27:06;6.50;69.30
42755;DHT22;28407;51.830;5.684;2023-04-03T04:29:09;6.50;69.30
42755;DHT22;28407;51.830;5.684;2023-04-03T04:31:10;6.40;69.30
42755;DHT22;28407;51.830;5.684;2023-04-03T04:33:11;6.40;69.40
42755;DHT22;28407;51.830;5.684;2023-04-03T04:35:13;6.50;69.40
42755;DHT22;28407;51.830;5.684;2023-04-03T04:37:16;6.40;69.40
42755;DHT22;28407;51.830;5.684;2023-04-03T04:39:17;6.40;69.40
42755;DHT22;28407;51.830;5.684;2023-04-03T04:41:19;6.40;69.40
42755;DHT22;28407;51.830;5.684;2023-04-03T04:43:21;6.40;69.40
42755;DHT22;28407;51.830;5.684;2023-04-03T04:45:25;6.40;69.40
42755;DHT22;28407;51.830;5.684;2023-04-03T04:47:25;6.40;69.40
42755;DHT22;28407;51.830;5.684;2023-04-03T04:49:28;6.40;69.40
42755;DHT22;28407;51.830;5.684;2023-04-03T04:51:28;6.40;69.40
42755;DHT22;28407;51.830;5.684;2023-04-03T04:53:30;6.40;69.40
42755;DHT22;28407;51.830;5.684;2023-04-03T04:55:30;6.40;69.40
42755;DHT22;28407;51.830;5.684;2023-04-03T04:57:31;6.40;69.40
42755;DHT22;28407;51.830;5.684;2023-04-03T04:59:33;6.40;69.40
42755;DHT22;28407;51.830;5.684;2023-04-03T05:01:33;6.40;69.50
42755;DHT22;28407;51.830;5.684;2023-04-03T05:03:40;6.40;69.50
42755;DHT22;28407;51.830;5.684;2023-04-03T05:05:41;6.40;69.50
42755;DHT22;28407;51.830;5.684;2023-04-03T05:07:42;6.30;69.40
42755;DHT22;28407;51.830;5.684;2023-04-03T05:09:43;6.30;69.40
42755;DHT22;28407;51.830;5.684;2023-04-03T05:11:45;6.30;69.40
42755;DHT22;28407;51.830;5.684;2023-04-03T05:13:48;6.30;69.50
42755;DHT22;28407;51.830;5.684;2023-04-03T05:15:49;6.30;69.50
42755;DHT22;28407;51.830;5.684;2023-04-03T05:17:50;6.20;69.60
42755;DHT22;28407;51.830;5.684;2023-04-03T05:19:51;6.20;69.70
42755;DHT22;28407;51.830;5.684;2023-04-03T05:21:54;6.20;70.40
42755;DHT22;28407;51.830;5.684;2023-04-03T05:23:55;6.20;69.80
42755;DHT22;28407;51.830;5.684;2023-04-03T05:25:56;6.30;70.00
42755;DHT22;28407;51.830;5.684;2023-04-03T05:27:57;6.20;69.90
42755;DHT22;28407;51.830;5.684;2023-04-03T05:29:58;6.30;69.90
42755;DHT22;28407;51.830;5.684;2023-04-03T05:32:00;6.30;69.90
42755;DHT22;28407;51.830;5.684;2023-04-03T05:34:01;6.30;70.00
42755;DHT22;28407;51.830;5.684;2023-04-03T05:36:05;6.30;70.00
42755;DHT22;28407;51.830;5.684;2023-04-03T05:38:08;6.30;70.00
42755;DHT22;28407;51.830;5.684;2023-04-03T05:40:09;6.30;70.00
42755;DHT22;28407;51.830;5.684;2023-04-03T05:42:11;6.30;70.10
42755;DHT22;28407;51.830;5.684;2023-04-03T05:44:12;6.40;70.10
42755;DHT22;28407;51.830;5.684;2023-04-03T05:46:16;6.40;70.10
42755;DHT22;28407;51.830;5.684;2023-04-03T05:48:19;6.40;70.00
42755;DHT22;28407;51.830;5.684;2023-04-03T05:50:20;6.40;70.00
42755;DHT22;28407;51.830;5.684;2023-04-03T05:52:26;6.40;70.00
42755;DHT22;28407;51.830;5.684;2023-04-03T05:54:29;6.40;70.00
42755;DHT22;28407;51.830;5.684;2023-04-03T05:56:40;6.40;70.10
42755;DHT22;28407;51.830;5.684;2023-04-03T05:58:41;6.40;70.00
42755;DHT22;28407;51.830;5.684;2023-04-03T06:00:42;6.40;70.10
42755;DHT22;28407;51.830;5.684;2023-04-03T06:02:43;6.40;70.10
42755;DHT22;28407;51.830;5.684;2023-04-03T06:04:50;6.40;70.10
42755;DHT22;28407;51.830;5.684;2023-04-03T06:06:55;6.40;70.10
42755;DHT22;28407;51.830;5.684;2023-04-03T06:08:56;6.40;70.10
42755;DHT22;28407;51.830;5.684;2023-04-03T06:10:57;6.40;70.10
42755;DHT22;28407;51.830;5.684;2023-04-03T06:12:57;6.50;70.00
42755;DHT22;28407;51.830;5.684;2023-04-03T06:14:58;6.40;70.00
42755;DHT22;28407;51.830;5.684;2023-04-03T06:16:59;6.40;70.10
42755;DHT22;28407;51.830;5.684;2023-04-03T06:19:00;6.40;70.10
42755;DHT22;28407;51.830;5.684;2023-04-03T06:21:01;6.40;70.10
42755;DHT22;28407;51.830;5.684;2023-04-03T06:23:03;6.40;69.90
42755;DHT22;28407;51.830;5.684;2023-04-03T06:25:04;6.30;70.00
42755;DHT22;28407;51.830;5.684;2023-04-03T06:27:05;6.30;70.10
42755;DHT22;28407;51.830;5.684;2023-04-03T06:29:05;6.30;70.20
42755;DHT22;28407;51.830;5.684;2023-04-03T06:31:06;6.30;70.10
42755;DHT22;28407;51.830;5.684;2023-04-03T06:33:07;6.30;70.10
42755;DHT22;28407;51.830;5.684;2023-04-03T06:35:08;6.30;70.10
42755;DHT22;28407;51.830;5.684;2023-04-03T06:37:17;6.30;70.10
42755;DHT22;28407;51.830;5.684;2023-04-03T06:39:21;6.30;70.10
42755;DHT22;28407;51.830;5.684;2023-04-03T06:41:22;6.30;70.00
42755;DHT22;28407;51.830;5.684;2023-04-03T06:43:23;6.30;70.00
42755;DHT22;28407;51.830;5.684;2023-04-03T06:45:24;6.30;70.00
42755;DHT22;28407;51.830;5.684;2023-04-03T06:47:25;6.30;69.80
42755;DHT22;28407;51.830;5.684;2023-04-03T06:49:26;6.30;69.80
42755;DHT22;28407;51.830;5.684;2023-04-03T06:51:28;6.20;69.80
42755;DHT22;28407;51.830;5.684;2023-04-03T06:53:29;6.20;69.90
42755;DHT22;28407;51.830;5.684;2023-04-03T06:55:30;6.20;69.90
42755;DHT22;28407;51.830;5.684;2023-04-03T06:57:30;6.10;69.80
42755;DHT22;28407;51.830;5.684;2023-04-03T06:59:31;6.10;69.90
42755;DHT22;28407;51.830;5.684;2023-04-03T07:01:32;6.10;70.00
42755;DHT22;28407;51.830;5.684;2023-04-03T07:03:32;6.00;70.00
42755;DHT22;28407;51.830;5.684;2023-04-03T07:05:33;6.10;70.10
42755;DHT22;28407;51.830;5.684;2023-04-03T07:07:33;6.10;70.00
42755;DHT22;28407;51.830;5.684;2023-04-03T07:09:34;6.10;69.90
42755;DHT22;28407;51.830;5.684;2023-04-03T07:11:35;6.10;69.90
42755;DHT22;28407;51.830;5.684;2023-04-03T07:13:36;6.20;69.90
42755;DHT22;28407;51.830;5.684;2023-04-03T07:15:37;6.20;69.80
42755;DHT22;28407;51.830;5.684;2023-04-03T07:17:38;6.20;69.80
42755;DHT22;28407;51.830;5.684;2023-04-03T07:19:39;6.20;69.40
42755;DHT22;28407;51.830;5.684;2023-04-03T07:21:39;6.20;69.60
42755;DHT22;28407;51.830;5.684;2023-04-03T07:23:42;6.20;69.60
42755;DHT22;28407;51.830;5.684;2023-04-03T07:25:44;6.20;69.60
42755;DHT22;28407;51.830;5.684;2023-04-03T07:27:45;6.20;69.70
42755;DHT22;28407;51.830;5.684;2023-04-03T07:29:45;6.20;69.80
42755;DHT22;28407;51.830;5.684;2023-04-03T07:31:48;6.20;69.80
42755;DHT22;28407;51.830;5.684;2023-04-03T07:33:49;6.30;69.70
42755;DHT22;28407;51.830;5.684;2023-04-03T07:35:50;6.30;69.50
42755;DHT22;28407;51.830;5.684;2023-04-03T07:37:51;6.30;69.40
42755;DHT22;28407;51.830;5.684;2023-04-03T07:39:51;6.20;69.40
42755;DHT22;28407;51.830;5.684;2023-04-03T07:41:52;6.20;69.50
42755;DHT22;28407;51.830;5.684;2023-04-03T07:43:53;6.20;69.50
42755;DHT22;28407;51.830;5.684;2023-04-03T07:45:54;6.30;69.50
42755;DHT22;28407;51.830;5.684;2023-04-03T07:47:54;6.30;69.10
42755;DHT22;28407;51.830;5.684;2023-04-03T07:49:55;6.30;69.00
42755;DHT22;28407;51.830;5.684;2023-04-03T07:51:57;6.30;68.90
42755;DHT22;28407;51.830;5.684;2023-04-03T07:53:58;6.30;68.80
42755;DHT22;28407;51.830;5.684;2023-04-03T07:56:00;6.30;68.80
42755;DHT22;28407;51.830;5.684;2023-04-03T07:58:02;6.30;68.80
42755;DHT22;28407;51.830;5.684;2023-04-03T08:00:04;6.30;68.70
42755;DHT22;28407;51.830;5.684;2023-04-03T08:02:12;6.30;68.50
42755;DHT22;28407;51.830;5.684;2023-04-03T08:04:13;6.30;68.70
42755;DHT22;28407;51.830;5.684;2023-04-03T08:06:13;6.50;69.20
42755;DHT22;28407;51.830;5.684;2023-04-03T08:08:20;6.60;69.20
42755;DHT22;28407;51.830;5.684;2023-04-03T08:10:22;6.60;68.40
42755;DHT22;28407;51.830;5.684;2023-04-03T08:12:22;6.70;68.30
42755;DHT22;28407;51.830;5.684;2023-04-03T08:14:23;6.70;68.00
42755;DHT22;28407;51.830;5.684;2023-04-03T08:16:24;6.70;67.60
42755;DHT22;28407;51.830;5.684;2023-04-03T08:18:28;6.60;67.60
42755;DHT22;28407;51.830;5.684;2023-04-03T08:20:29;6.60;67.60
42755;DHT22;28407;51.830;5.684;2023-04-03T08:22:29;6.60;67.50
42755;DHT22;28407;51.830;5.684;2023-04-03T08:24:32;6.60;67.30
42755;DHT22;28407;51.830;5.684;2023-04-03T08:26:33;6.60;67.30
42755;DHT22;28407;51.830;5.684;2023-04-03T08:28:34;6.70;67.10
42755;DHT22;28407;51.830;5.684;2023-04-03T08:30:35;6.60;66.60
42755;DHT22;28407;51.830;5.684;2023-04-03T08:32:36;6.60;66.40
42755;DHT22;28407;51.830;5.684;2023-04-03T08:34:37;6.60;66.30
42755;DHT22;28407;51.830;5.684;2023-04-03T08:36:39;6.60;66.20
42755;DHT22;28407;51.830;5.684;2023-04-03T08:38:40;6.60;66.10
42755;DHT22;28407;51.830;5.684;2023-04-03T08:40:41;6.60;65.90
42755;DHT22;28407;51.830;5.684;2023-04-03T08:44:59;6.70;65.80
42755;DHT22;28407;51.830;5.684;2023-04-03T08:47:18;6.80;65.70
42755;DHT22;28407;51.830;5.684;2023-04-03T08:49:32;6.80;64.90
42755;DHT22;28407;51.830;5.684;2023-04-03T08:51:33;6.80;64.80
42755;DHT22;28407;51.830;5.684;2023-04-03T08:53:36;6.80;64.80
42755;DHT22;28407;51.830;5.684;2023-04-03T08:55:47;6.90;64.70
42755;DHT22;28407;51.830;5.684;2023-04-03T08:57:53;6.90;64.60
42755;DHT22;28407;51.830;5.684;2023-04-03T09:00:00;7.00;64.00
42755;DHT22;28407;51.830;5.684;2023-04-03T09:02:22;7.00;63.50
42755;DHT22;28407;51.830;5.684;2023-04-03T09:04:26;7.00;63.40
42755;DHT22;28407;51.830;5.684;2023-04-03T09:06:32;7.00;62.60
42755;DHT22;28407;51.830;5.684;2023-04-03T09:15:45;7.10;62.30
42755;DHT22;28407;51.830;5.684;2023-04-03T09:18:15;7.10;62.30
42755;DHT22;28407;51.830;5.684;2023-04-03T09:22:41;7.20;61.10
42755;DHT22;28407;51.830;5.684;2023-04-03T09:24:45;7.30;60.80
42755;DHT22;28407;51.830;5.684;2023-04-03T09:26:53;7.30;60.90
42755;DHT22;28407;51.830;5.684;2023-04-03T09:28:59;7.40;59.90
42755;DHT22;28407;51.830;5.684;2023-04-03T09:31:02;7.40;59.90
42755;DHT22;28407;51.830;5.684;2023-04-03T09:33:07;7.50;59.50
42755;DHT22;28407;51.830;5.684;2023-04-03T09:35:28;7.50;59.30
42755;DHT22;28407;51.830;5.684;2023-04-03T09:37:46;7.50;58.50
42755;DHT22;28407;51.830;5.684;2023-04-03T09:39:50;7.60;58.60
42755;DHT22;28407;51.830;5.684;2023-04-03T09:42:21;7.60;57.10
42755;DHT22;28407;51.830;5.684;2023-04-03T09:44:25;7.70;57.10
42755;DHT22;28407;51.830;5.684;2023-04-03T09:46:32;7.70;56.90
42755;DHT22;28407;51.830;5.684;2023-04-03T09:48:33;7.70;56.50
42755;DHT22;28407;51.830;5.684;2023-04-03T09:50:35;7.70;56.70
42755;DHT22;28407;51.830;5.684;2023-04-03T09:52:36;7.70;55.20
42755;DHT22;28407;51.830;5.684;2023-04-03T09:54:37;7.80;55.90
42755;DHT22;28407;51.830;5.684;2023-04-03T09:56:40;7.80;55.80
42755;DHT22;28407;51.830;5.684;2023-04-03T09:58:46;7.90;54.60
42755;DHT22;28407;51.830;5.684;2023-04-03T10:00:58;8.00;53.40
42755;DHT22;28407;51.830;5.684;2023-04-03T10:02:59;8.00;52.10
42755;DHT22;28407;51.830;5.684;2023-04-03T10:05:00;8.10;52.70
42755;DHT22;28407;51.830;5.684;2023-04-03T10:07:01;8.10;52.80
42755;DHT22;28407;51.830;5.684;2023-04-03T10:09:06;8.10;52.00
42755;DHT22;28407;51.830;5.684;2023-04-03T10:11:15;8.20;52.30
42755;DHT22;28407;51.830;5.684;2023-04-03T10:13:19;8.30;51.70
42755;DHT22;28407;51.830;5.684;2023-04-03T10:15:21;8.30;51.40
42755;DHT22;28407;51.830;5.684;2023-04-03T10:20:02;8.40;50.50
42755;DHT22;28407;51.830;5.684;2023-04-03T10:22:21;8.50;50.30
42755;DHT22;28407;51.830;5.684;2023-04-03T10:24:30;8.60;50.40
42755;DHT22;28407;51.830;5.684;2023-04-03T10:26:48;8.60;50.40
42755;DHT22;28407;51.830;5.684;2023-04-03T10:29:20;8.70;49.90
42755;DHT22;28407;51.830;5.684;2023-04-03T10:31:25;8.70;48.90
42755;DHT22;28407;51.830;5.684;2023-04-03T10:33:34;8.80;48.70
42755;DHT22;28407;51.830;5.684;2023-04-03T10:35:42;8.80;48.40
42755;DHT22;28407;51.830;5.684;2023-04-03T10:42:43;8.90;47.20
42755;DHT22;28407;51.830;5.684;2023-04-03T10:45:18;8.90;46.30
42755;DHT22;28407;51.830;5.684;2023-04-03T10:47:32;8.90;45.60
42755;DHT22;28407;51.830;5.684;2023-04-03T10:52:24;9.00;46.10
42755;DHT22;28407;51.830;5.684;2023-04-03T10:54:49;9.10;46.80
42755;DHT22;28407;51.830;5.684;2023-04-03T10:56:58;9.20;46.70
42755;DHT22;28407;51.830;5.684;2023-04-03T11:01:33;9.30;46.30
42755;DHT22;28407;51.830;5.684;2023-04-03T11:03:48;9.40;46.10
42755;DHT22;28407;51.830;5.684;2023-04-03T11:05:52;9.40;45.60
42755;DHT22;28407;51.830;5.684;2023-04-03T11:07:55;9.50;45.80
42755;DHT22;28407;51.830;5.684;2023-04-03T11:10:03;9.50;45.50
42755;DHT22;28407;51.830;5.684;2023-04-03T11:12:25;9.50;45.70
42755;DHT22;28407;51.830;5.684;2023-04-03T11:14:35;9.60;45.60
42755;DHT22;28407;51.830;5.684;2023-04-03T11:16:43;9.60;45.40
42755;DHT22;28407;51.830;5.684;2023-04-03T11:18:54;9.70;45.40
42755;DHT22;28407;51.830;5.684;2023-04-03T11:21:28;9.70;45.60
42755;DHT22;28407;51.830;5.684;2023-04-03T11:23:30;9.80;45.90
42755;DHT22;28407;51.830;5.684;2023-04-03T11:25:34;9.80;45.90
42755;DHT22;28407;51.830;5.684;2023-04-03T11:27:59;9.90;45.10
42755;DHT22;28407;51.830;5.684;2023-04-03T11:30:06;9.90;45.60
42755;DHT22;28407;51.830;5.684;2023-04-03T11:34:39;10.10;45.80
42755;DHT22;28407;51.830;5.684;2023-04-03T11:36:47;10.20;45.90
42755;DHT22;28407;51.830;5.684;2023-04-03T11:38:51;10.30;45.80
42755;DHT22;28407;51.830;5.684;2023-04-03T11:40:55;10.30;45.70
42755;DHT22;28407;51.830;5.684;2023-04-03T11:47:48;10.50;45.20
42755;DHT22;28407;51.830;5.684;2023-04-03T11:51:51;10.60;45.50
42755;DHT22;28407;51.830;5.684;2023-04-03T11:53:52;10.60;44.50
42755;DHT22;28407;51.830;5.684;2023-04-03T11:55:55;10.70;43.30
42755;DHT22;28407;51.830;5.684;2023-04-03T11:59:57;10.70;44.00
42755;DHT22;28407;51.830;5.684;2023-04-03T12:01:58;10.70;44.20
42755;DHT22;28407;51.830;5.684;2023-04-03T12:04:07;10.80;44.10
42755;DHT22;28407;51.830;5.684;2023-04-03T12:10:24;11.00;44.50
42755;DHT22;28407;51.830;5.684;2023-04-03T12:12:36;11.10;44.60
42755;DHT22;28407;51.830;5.684;2023-04-03T12:14:38;11.10;44.50
42755;DHT22;28407;51.830;5.684;2023-04-03T12:23:29;11.40;44.80
42755;DHT22;28407;51.830;5.684;2023-04-03T12:25:48;11.40;44.20
42755;DHT22;28407;51.830;5.684;2023-04-03T12:27:51;11.60;44.10
42755;DHT22;28407;51.830;5.684;2023-04-03T12:30:27;11.50;43.00
42755;DHT22;28407;51.830;5.684;2023-04-03T12:32:43;11.50;43.40
42755;DHT22;28407;51.830;5.684;2023-04-03T12:35:28;11.60;43.80
42755;DHT22;28407;51.830;5.684;2023-04-03T12:39:51;11.70;43.40
42755;DHT22;28407;51.830;5.684;2023-04-03T12:44:47;11.90;43.70
42755;DHT22;28407;51.830;5.684;2023-04-03T12:46:53;11.90;43.90
42755;DHT22;28407;51.830;5.684;2023-04-03T12:48:56;11.90;43.50
42755;DHT22;28407;51.830;5.684;2023-04-03T12:50:59;12.00;43.90
42755;DHT22;28407;51.830;5.684;2023-04-03T12:53:06;12.10;43.50
42755;DHT22;28407;51.830;5.684;2023-04-03T12:55:18;12.10;43.00
42755;DHT22;28407;51.830;5.684;2023-04-03T12:57:21;12.20;43.40
42755;DHT22;28407;51.830;5.684;2023-04-03T12:59:24;12.20;43.60
42755;DHT22;28407;51.830;5.684;2023-04-03T13:01:26;12.30;43.90
42755;DHT22;28407;51.830;5.684;2023-04-03T13:03:27;12.40;43.80
42755;DHT22;28407;51.830;5.684;2023-04-03T13:05:28;12.50;43.30
42755;DHT22;28407;51.830;5.684;2023-04-03T13:07:32;12.60;43.30
42755;DHT22;28407;51.830;5.684;2023-04-03T13:09:33;12.60;43.10
42755;DHT22;28407;51.830;5.684;2023-04-03T13:11:37;12.60;42.60
42755;DHT22;28407;51.830;5.684;2023-04-03T13:13:38;12.60;42.80
42755;DHT22;28407;51.830;5.684;2023-04-03T13:15:42;12.60;42.70
42755;DHT22;28407;51.830;5.684;2023-04-03T13:17:44;12.60;42.20
42755;DHT22;28407;51.830;5.684;2023-04-03T13:19:45;12.60;42.80
42755;DHT22;28407;51.830;5.684;2023-04-03T13:21:55;12.60;42.00
42755;DHT22;28407;51.830;5.684;2023-04-03T13:23:59;12.60;42.10
42755;DHT22;28407;51.830;5.684;2023-04-03T13:26:01;12.60;42.10
42755;DHT22;28407;51.830;5.684;2023-04-03T13:28:05;12.60;42.30
42755;DHT22;28407;51.830;5.684;2023-04-03T13:30:17;12.60;41.90
42755;DHT22;28407;51.830;5.684;2023-04-03T13:32:22;12.60;42.00
42755;DHT22;28407;51.830;5.684;2023-04-03T13:34:26;12.60;42.40
42755;DHT22;28407;51.830;5.684;2023-04-03T13:36:33;12.70;42.20
42755;DHT22;28407;51.830;5.684;2023-04-03T13:38:35;12.70;43.10
42755;DHT22;28407;51.830;5.684;2023-04-03T13:40:54;12.80;42.40
42755;DHT22;28407;51.830;5.684;2023-04-03T13:43:19;12.80;41.90
42755;DHT22;28407;51.830;5.684;2023-04-03T13:45:23;12.90;42.30
42755;DHT22;28407;51.830;5.684;2023-04-03T13:47:24;12.90;42.40
42755;DHT22;28407;51.830;5.684;2023-04-03T13:51:38;13.00;41.70
42755;DHT22;28407;51.830;5.684;2023-04-03T13:53:58;13.00;42.00
42755;DHT22;28407;51.830;5.684;2023-04-03T13:58:18;13.10;41.90
42755;DHT22;28407;51.830;5.684;2023-04-03T14:02:33;13.30;41.90
42755;DHT22;28407;51.830;5.684;2023-04-03T14:06:37;13.50;42.30
42755;DHT22;28407;51.830;5.684;2023-04-03T14:08:38;13.50;42.00
42755;DHT22;28407;51.830;5.684;2023-04-03T14:10:38;13.60;41.80
42755;DHT22;28407;51.830;5.684;2023-04-03T14:12:40;13.60;41.60
42755;DHT22;28407;51.830;5.684;2023-04-03T14:14:41;13.70;41.70
42755;DHT22;28407;51.830;5.684;2023-04-03T14:16:45;13.70;41.90